createdAt,value
2019-03-09T00:04:24.255Z,3.67
2019-03-09T00:09:16.997Z,2.97
2019-03-09T00:14:09.907Z,4.60
2019-03-09T00:19:02.208Z,3.72
2019-03-09T00:23:58.937Z,4.28
2019-03-09T00:29:05.221Z,3.17
2019-03-09T00:33:57.516Z,4.08
2019-03-09T00:38:49.824Z,4.03
2019-03-09T00:43:42.430Z,3.87
2019-03-09T00:48:34.896Z,5.22
2019-03-09T00:53:27.677Z,4.72
2019-03-09T00:58:19.981Z,10.23
2019-03-09T01:03:12.836Z,6.97
2019-03-09T01:08:05.469Z,6.72
2019-03-09T01:12:57.989Z,3.43
2019-03-09T01:17:50.730Z,4.80
2019-03-09T01:22:43.143Z,7.60
2019-03-09T01:27:35.890Z,10.63
2019-03-09T01:32:28.252Z,7.28
2019-03-09T01:37:20.705Z,4.63
2019-03-09T01:42:13.203Z,7.20
2019-03-09T01:47:05.988Z,4.80
2019-03-09T01:51:58.582Z,4.78
2019-03-09T01:56:51.073Z,4.00
2019-03-09T02:01:44.155Z,4.08
2019-03-09T02:06:36.581Z,3.65
2019-03-09T02:11:29.173Z,2.95
2019-03-09T02:16:21.877Z,5.42
2019-03-09T02:21:14.480Z,3.53
2019-03-09T02:26:07.078Z,3.33
2019-03-09T02:30:59.404Z,3.43
2019-03-09T02:35:52.197Z,2.70
2019-03-09T02:40:44.821Z,3.47
2019-03-09T02:45:37.411Z,3.60
2019-03-09T02:50:30.202Z,3.30
2019-03-09T02:55:22.770Z,3.00
2019-03-09T03:00:20.666Z,3.30
2019-03-09T03:05:14.080Z,3.37
2019-03-09T03:10:08.689Z,3.30
2019-03-09T03:15:01.170Z,3.00
2019-03-09T03:19:53.786Z,3.10
2019-03-09T03:24:46.300Z,2.90
2019-03-09T03:29:38.826Z,2.93
2019-03-09T03:34:31.485Z,3.67
2019-03-09T03:39:24.149Z,2.87
2019-03-09T03:44:17.097Z,3.93
2019-03-09T03:49:09.689Z,2.50
2019-03-09T03:54:02.474Z,3.20
2019-03-09T03:58:55.197Z,3.03
2019-03-09T04:03:47.744Z,3.00
2019-03-09T04:08:40.401Z,2.77
2019-03-09T04:13:32.863Z,3.07
2019-03-09T04:18:25.374Z,2.63
2019-03-09T04:23:17.989Z,2.80
2019-03-09T04:28:10.643Z,3.40
2019-03-09T04:33:03.469Z,2.47
2019-03-09T04:37:56.240Z,2.53
2019-03-09T04:42:48.533Z,2.30
2019-03-09T04:47:41.270Z,2.00
2019-03-09T04:52:53.177Z,1.90
2019-03-09T04:57:45.530Z,2.03
2019-03-09T05:02:38.224Z,4.80
2019-03-09T05:07:30.880Z,1.60
2019-03-09T05:12:23.509Z,1.80
2019-03-09T05:17:16.093Z,1.40
2019-03-09T05:22:08.873Z,1.53
2019-03-09T05:27:01.251Z,1.43
2019-03-09T05:31:53.373Z,1.50
2019-03-09T05:36:46.874Z,1.43
2019-03-09T05:41:58.479Z,1.70
2019-03-09T05:46:51.304Z,1.53
2019-03-09T05:51:43.588Z,4.40
2019-03-09T05:56:36.266Z,2.80
2019-03-09T06:01:28.829Z,5.77
2019-03-09T06:06:21.410Z,4.53
2019-03-09T06:11:14.010Z,19.67
2019-03-09T06:16:06.577Z,18.87
2019-03-09T06:20:59.502Z,4.97
2019-03-09T06:25:52.178Z,1.80
2019-03-09T06:30:44.940Z,2.83
2019-03-09T06:35:37.227Z,6.17
2019-03-09T06:40:29.710Z,5.47
2019-03-09T06:45:22.120Z,3.83
2019-03-09T06:50:16.201Z,3.67
2019-03-09T06:55:11.129Z,4.97
2019-03-09T07:00:24.993Z,4.10
2019-03-09T07:05:17.525Z,3.90
2019-03-09T07:10:10.137Z,2.70
2019-03-09T07:15:17.381Z,2.10
2019-03-09T07:20:12.972Z,1.90
2019-03-09T07:25:04.353Z,2.10
2019-03-09T07:29:56.841Z,3.37
2019-03-09T07:34:49.454Z,1.92
2019-03-09T07:39:41.991Z,2.40
2019-03-09T07:44:34.516Z,2.30
2019-03-09T07:49:27.085Z,4.97
2019-03-09T07:54:19.359Z,1.90
2019-03-09T07:59:11.953Z,2.50
2019-03-09T08:04:04.854Z,1.72
2019-03-09T08:08:57.385Z,1.90
2019-03-09T08:13:49.745Z,1.72
2019-03-09T08:18:42.416Z,1.80
2019-03-09T08:23:34.752Z,2.00
2019-03-09T08:28:27.423Z,1.90
2019-03-09T08:33:20.108Z,1.98
2019-03-09T08:38:12.572Z,2.45
2019-03-09T08:43:05.149Z,2.62
2019-03-09T08:47:57.484Z,1.75
2019-03-09T08:52:49.928Z,4.75
2019-03-09T08:57:42.689Z,10.50
2019-03-09T09:02:34.829Z,8.60
2019-03-09T09:07:27.381Z,6.12
2019-03-09T09:12:20.201Z,3.20
2019-03-09T09:17:12.803Z,3.85
2019-03-09T09:22:06.788Z,3.55
2019-03-09T09:26:59.284Z,2.60
2019-03-09T09:31:51.769Z,3.55
2019-03-09T09:36:44.451Z,3.17
2019-03-09T09:41:37.032Z,5.00
2019-03-09T09:46:29.468Z,5.05
2019-03-09T09:51:22.277Z,3.10
2019-03-09T09:56:14.885Z,3.47
2019-03-09T10:01:07.239Z,3.20
2019-03-09T10:05:59.855Z,2.37
2019-03-09T10:10:52.337Z,3.10
2019-03-09T10:15:44.692Z,3.17
2019-03-09T10:20:37.341Z,2.12
2019-03-09T10:25:30.263Z,2.83
2019-03-09T10:30:24.770Z,3.20
2019-03-09T10:35:17.384Z,2.90
2019-03-09T10:40:11.653Z,3.30
2019-03-09T10:45:04.881Z,2.92
2019-03-09T10:49:57.489Z,9.43
2019-03-09T10:54:49.921Z,4.58
2019-03-09T10:59:42.320Z,1.72
2019-03-09T11:04:34.822Z,2.27
2019-03-09T11:09:27.757Z,2.58
2019-03-09T11:14:20.190Z,3.30
2019-03-09T11:19:12.692Z,1.90
2019-03-09T11:24:05.289Z,2.02
2019-03-09T11:28:57.885Z,1.70
2019-03-09T11:33:50.196Z,1.50
2019-03-09T11:38:42.529Z,1.40
2019-03-09T11:43:35.213Z,2.05
2019-03-09T11:48:27.529Z,1.35
2019-03-09T11:53:20.076Z,3.05
2019-03-09T11:58:12.686Z,4.33
2019-03-09T12:03:05.374Z,3.02
2019-03-09T12:07:57.901Z,5.05
2019-03-09T12:12:50.313Z,7.55
2019-03-09T12:17:42.701Z,2.58
2019-03-09T12:22:36.921Z,9.08
2019-03-09T12:27:29.264Z,5.28
2019-03-09T12:32:21.809Z,2.60
2019-03-09T12:37:14.569Z,5.12
2019-03-09T12:42:07.227Z,2.75
2019-03-09T12:47:00.197Z,1.17
2019-03-09T12:51:52.688Z,1.40
2019-03-09T12:56:45.337Z,1.67
2019-03-09T13:01:38.099Z,1.67
2019-03-09T13:06:31.545Z,2.75
2019-03-09T13:11:24.202Z,2.50
2019-03-09T13:16:16.625Z,3.02
2019-03-09T13:21:09.305Z,2.40
2019-03-09T13:26:01.861Z,2.60
2019-03-09T13:30:54.690Z,4.05
2019-03-09T13:35:47.047Z,2.60
2019-03-09T13:40:41.184Z,2.20
2019-03-09T13:45:33.808Z,2.10
2019-03-09T13:50:26.751Z,4.00
2019-03-09T13:55:19.353Z,2.65
2019-03-09T14:00:14.775Z,2.33
2019-03-09T14:05:08.801Z,2.90
2019-03-09T14:10:01.387Z,3.80
2019-03-09T14:14:54.099Z,3.52
2019-03-09T14:19:46.683Z,3.58
2019-03-09T14:24:39.316Z,3.08
2019-03-09T14:29:31.783Z,3.10
2019-03-09T14:34:24.374Z,4.20
2019-03-09T14:39:16.801Z,4.00
2019-03-09T14:44:09.433Z,3.08
2019-03-09T14:49:02.265Z,3.08
2019-03-09T14:53:54.501Z,3.50
2019-03-09T14:58:46.881Z,3.42
2019-03-09T15:03:39.537Z,3.80
2019-03-09T15:08:31.931Z,2.95
2019-03-09T15:13:24.540Z,3.10
2019-03-09T15:18:17.063Z,3.10
2019-03-09T15:23:09.826Z,2.40
2019-03-09T15:28:02.187Z,2.72
2019-03-09T15:32:54.645Z,2.80
2019-03-09T15:37:47.193Z,4.10
2019-03-09T15:42:40.180Z,3.17
2019-03-09T15:47:32.538Z,2.77
2019-03-09T15:52:25.265Z,3.33
2019-03-09T15:57:17.937Z,4.87
2019-03-09T16:02:10.716Z,6.58
2019-03-09T16:07:07.649Z,6.62
2019-03-09T16:12:00.262Z,3.77
2019-03-09T16:16:52.666Z,2.90
2019-03-09T16:21:45.253Z,2.70
2019-03-09T16:26:37.637Z,2.70
2019-03-09T16:31:30.337Z,3.83
2019-03-09T16:36:22.763Z,3.52
2019-03-09T16:41:15.739Z,3.25
2019-03-09T16:46:08.216Z,4.55
2019-03-09T16:51:00.661Z,3.52
2019-03-09T16:55:53.548Z,3.20
2019-03-09T17:00:46.102Z,3.87
2019-03-09T17:05:44.793Z,3.80
2019-03-09T17:10:43.562Z,4.22
2019-03-09T17:15:36.040Z,4.42
2019-03-09T17:20:28.470Z,3.98
2019-03-09T17:25:21.150Z,4.10
2019-03-09T17:30:18.917Z,3.50
2019-03-09T17:35:11.649Z,3.27
2019-03-09T17:40:04.304Z,3.42
2019-03-09T17:44:56.412Z,3.80
2019-03-09T17:49:49.161Z,4.20
2019-03-09T17:54:41.425Z,4.47
2019-03-09T17:59:34.369Z,4.42
2019-03-09T18:04:26.865Z,5.95
2019-03-09T18:09:19.361Z,6.47
2019-03-09T18:14:12.170Z,5.70
2019-03-09T18:19:04.609Z,6.85
2019-03-09T18:23:57.024Z,8.33
2019-03-09T18:28:49.592Z,13.60
2019-03-09T18:33:42.089Z,10.15
2019-03-09T18:38:35.077Z,6.53
2019-03-09T18:43:27.849Z,9.30
2019-03-09T18:48:20.792Z,12.25
2019-03-09T18:53:13.183Z,10.53
2019-03-09T18:58:05.986Z,8.35
2019-03-09T19:02:58.641Z,9.68
2019-03-09T19:07:51.444Z,8.50
2019-03-09T19:12:43.939Z,10.80
2019-03-09T19:17:36.208Z,6.12
2019-03-09T19:22:28.955Z,6.15
2019-03-09T19:27:21.554Z,5.25
2019-03-09T19:32:13.877Z,4.70
2019-03-09T19:37:06.278Z,5.10
2019-03-09T19:41:58.781Z,4.58
2019-03-09T19:46:51.554Z,4.85
2019-03-09T19:51:43.952Z,5.35
2019-03-09T19:56:36.181Z,4.90
2019-03-09T20:01:28.878Z,5.40
2019-03-09T20:06:21.548Z,5.75
2019-03-09T20:11:13.974Z,5.20
2019-03-09T20:16:06.914Z,5.28
2019-03-09T20:20:59.221Z,4.80
2019-03-09T20:25:51.550Z,5.17
2019-03-09T20:30:44.295Z,4.92
2019-03-09T20:35:36.874Z,4.22
2019-03-09T20:40:29.274Z,4.62
2019-03-09T20:45:23.421Z,4.62
2019-03-09T20:50:21.659Z,4.65
2019-03-09T20:55:14.493Z,5.10
2019-03-09T21:00:10.265Z,4.75
2019-03-09T21:05:02.818Z,3.83
2019-03-09T21:09:55.046Z,4.47
2019-03-09T21:14:47.437Z,5.17
2019-03-09T21:19:40.137Z,5.95
2019-03-09T21:24:32.216Z,5.40
2019-03-09T21:29:24.510Z,5.92
2019-03-09T21:34:17.553Z,5.12
2019-03-09T21:39:10.158Z,3.67
2019-03-09T21:44:02.441Z,4.25
2019-03-09T21:48:55.196Z,3.75
2019-03-09T21:53:47.932Z,4.22
2019-03-09T21:58:40.255Z,4.30
2019-03-09T22:03:52.285Z,4.40
2019-03-09T22:08:44.998Z,3.72
2019-03-09T22:13:39.625Z,3.80
2019-03-09T22:18:32.237Z,3.75
2019-03-09T22:23:24.933Z,5.03
2019-03-09T22:28:17.517Z,4.72
2019-03-09T22:33:10.217Z,4.50
2019-03-09T22:38:02.752Z,4.65
2019-03-09T22:42:55.204Z,4.47
2019-03-09T22:47:47.898Z,4.45
2019-03-09T22:52:40.330Z,4.90
2019-03-09T22:57:32.969Z,4.15
2019-03-09T23:02:25.579Z,4.37
2019-03-09T23:07:17.985Z,4.25
2019-03-09T23:12:10.610Z,3.83
2019-03-09T23:17:03.420Z,4.62
2019-03-09T23:21:55.909Z,4.00
2019-03-09T23:26:48.271Z,4.55
2019-03-09T23:31:40.468Z,4.42
2019-03-09T23:36:32.861Z,4.12
2019-03-09T23:41:25.209Z,4.47
2019-03-09T23:46:17.732Z,6.37
2019-03-09T23:51:10.431Z,4.60
2019-03-09T23:56:02.917Z,4.90
